createdAt,value
2022-10-25T00:00:04.971Z,3.40
2022-10-25T00:05:34.388Z,3.80
2022-10-25T00:10:37.250Z,3.50
2022-10-25T00:15:39.838Z,3.67
2022-10-25T00:20:42.636Z,4.13
2022-10-25T00:25:46.434Z,3.40
2022-10-25T00:30:48.823Z,3.72
2022-10-25T00:35:51.128Z,3.85
2022-10-25T00:40:53.577Z,3.53
2022-10-25T00:45:56.732Z,3.50
2022-10-25T00:50:59.379Z,3.72
2022-10-25T00:56:14.143Z,3.35
2022-10-25T01:01:19.465Z,3.25
2022-10-25T01:06:57.524Z,3.22
2022-10-25T01:12:00.623Z,3.60
2022-10-25T01:17:28.276Z,3.42
2022-10-25T01:22:50.876Z,3.38
2022-10-25T01:28:15.153Z,3.70
2022-10-25T01:33:24.940Z,3.50
2022-10-25T01:38:51.204Z,3.08
2022-10-25T01:44:34.271Z,3.75
2022-10-25T01:49:48.340Z,3.15
2022-10-25T01:54:51.470Z,3.72
2022-10-25T02:00:07.478Z,3.22
2022-10-25T02:05:16.121Z,3.42
2022-10-25T02:10:33.472Z,4.13
2022-10-25T02:15:56.641Z,3.80
2022-10-25T02:21:07.435Z,3.42
2022-10-25T02:26:11.329Z,3.22
2022-10-25T02:31:20.009Z,2.72
2022-10-25T02:36:24.315Z,2.95
2022-10-25T02:41:26.710Z,3.45
2022-10-25T02:46:29.121Z,3.28
2022-10-25T02:51:31.717Z,3.40
2022-10-25T02:56:36.328Z,3.05
2022-10-25T03:01:38.970Z,3.30
2022-10-25T03:06:41.374Z,3.10
2022-10-25T03:11:43.731Z,3.20
2022-10-25T03:22:08.488Z,3.33
2022-10-25T03:27:10.946Z,3.17
2022-10-25T03:32:13.189Z,3.67
2022-10-25T03:37:16.729Z,3.17
2022-10-25T03:47:21.364Z,4.55
2022-10-25T03:52:27.023Z,5.07
2022-10-25T03:57:29.676Z,4.50
2022-10-25T04:02:37.988Z,3.93
2022-10-25T04:07:40.312Z,4.30
2022-10-25T04:12:42.732Z,6.60
2022-10-25T04:17:45.332Z,5.97
2022-10-25T04:22:55.409Z,6.68
2022-10-25T04:28:01.058Z,7.10
2022-10-25T04:33:04.463Z,8.15
2022-10-25T04:38:07.055Z,9.50
2022-10-25T04:43:09.316Z,11.93
2022-10-25T04:48:11.610Z,9.32
2022-10-25T04:53:21.208Z,9.77
2022-10-25T04:58:28.812Z,10.50
2022-10-25T05:03:34.392Z,8.82
2022-10-25T05:08:42.984Z,7.53
2022-10-25T05:13:45.937Z,7.28
2022-10-25T05:18:49.689Z,5.90
2022-10-25T05:23:52.029Z,5.90
2022-10-25T05:28:55.100Z,5.53
2022-10-25T05:33:59.925Z,7.88
2022-10-25T05:39:02.518Z,9.80
2022-10-25T05:44:05.898Z,9.77
2022-10-25T05:49:09.333Z,7.65
2022-10-25T05:59:17.972Z,6.20
2022-10-25T06:04:24.048Z,6.80
2022-10-25T06:09:26.371Z,5.70
2022-10-25T06:14:30.927Z,5.43
2022-10-25T06:19:33.351Z,6.95
2022-10-25T06:24:39.216Z,6.32
2022-10-25T06:29:41.627Z,5.88
2022-10-25T06:34:43.933Z,5.82
2022-10-25T06:39:48.050Z,7.40
2022-10-25T06:45:12.172Z,6.10
2022-10-25T06:50:15.174Z,6.00
2022-10-25T06:55:17.391Z,4.63
2022-10-25T07:00:19.916Z,5.23
2022-10-25T07:05:22.276Z,6.07
2022-10-25T07:10:24.844Z,6.93
2022-10-25T07:15:27.150Z,5.05
2022-10-25T07:20:29.542Z,3.50
2022-10-25T07:25:35.108Z,3.47
2022-10-25T07:30:37.560Z,4.28
2022-10-25T07:35:52.310Z,3.15
2022-10-25T07:41:03.572Z,3.45
2022-10-25T07:46:07.054Z,3.45
2022-10-25T07:51:15.612Z,3.38
2022-10-25T07:56:23.136Z,3.35
2022-10-25T08:01:28.010Z,3.80
2022-10-25T12:25:54.796Z,3.10
2022-10-25T12:31:14.988Z,3.58
2022-10-25T12:36:36.580Z,4.28
2022-10-25T12:41:45.003Z,6.32
2022-10-25T12:47:07.296Z,5.10
2022-10-25T12:52:26.896Z,6.07
2022-10-25T12:57:47.408Z,7.13
2022-10-25T13:03:20.848Z,6.07
2022-10-25T13:08:30.038Z,4.70
2022-10-25T13:13:41.924Z,5.90
2022-10-25T13:18:45.685Z,10.35
2022-10-25T13:23:59.307Z,25.52
2022-10-25T13:29:44.971Z,11.95
2022-10-25T13:34:47.764Z,7.65
2022-10-25T13:39:52.674Z,3.97
2022-10-25T13:45:04.095Z,5.15
2022-10-25T13:50:18.849Z,7.55
2022-10-25T13:55:22.601Z,13.73
2022-10-25T14:00:32.441Z,7.93
2022-10-25T14:06:00.972Z,8.70
2022-10-25T14:11:48.485Z,10.00
2022-10-25T14:16:53.867Z,8.13
2022-10-25T14:21:56.168Z,9.48
2022-10-25T14:27:00.730Z,8.05
2022-10-25T14:32:12.398Z,11.70
2022-10-25T14:37:15.057Z,13.57
2022-10-25T14:42:18.092Z,11.10
2022-10-25T14:47:33.966Z,8.82
2022-10-25T14:52:36.626Z,6.38
2022-10-25T14:57:40.419Z,7.63
2022-10-25T15:02:43.079Z,8.15
2022-10-25T15:07:47.247Z,7.40
2022-10-25T15:12:51.822Z,9.98
2022-10-25T15:17:54.358Z,8.38
2022-10-25T15:23:13.415Z,9.60
2022-10-25T15:28:17.813Z,9.18
2022-10-25T15:33:24.812Z,11.00
2022-10-25T15:38:47.762Z,15.45
2022-10-25T15:43:53.232Z,16.02
2022-10-25T15:48:56.258Z,17.50
2022-10-25T15:53:58.593Z,16.90
2022-10-25T15:59:02.677Z,13.03
2022-10-25T16:04:05.065Z,9.98
2022-10-25T16:09:07.351Z,12.40
2022-10-25T16:14:19.897Z,16.40
2022-10-25T16:19:22.335Z,22.30
2022-10-25T16:24:24.830Z,30.07
2022-10-25T16:29:27.111Z,43.03
2022-10-25T16:34:29.587Z,52.83
2022-10-25T16:39:31.984Z,56.33
2022-10-25T16:44:35.214Z,64.20
2022-10-25T16:49:37.906Z,61.05
2022-10-25T16:54:40.521Z,35.72
2022-10-25T17:04:46.528Z,22.63
2022-10-25T17:09:48.832Z,18.30
2022-10-25T17:14:54.052Z,20.67
2022-10-25T17:19:56.465Z,23.00
2022-10-25T17:24:59.069Z,18.50
2022-10-25T17:30:01.308Z,16.92
2022-10-25T17:35:06.013Z,16.00
2022-10-25T17:40:12.206Z,19.30
2022-10-25T17:45:14.559Z,25.73
2022-10-25T17:50:20.278Z,46.08
2022-10-25T17:55:22.959Z,61.20
2022-10-25T18:00:25.278Z,48.73
2022-10-25T18:05:27.792Z,49.40
2022-10-25T18:10:33.749Z,64.82
2022-10-25T18:15:42.808Z,46.05
2022-10-25T18:21:16.659Z,30.15
2022-10-25T18:26:23.593Z,27.25
2022-10-25T18:31:27.344Z,22.17
2022-10-25T18:36:31.127Z,17.52
2022-10-25T18:41:34.445Z,22.90
2022-10-25T18:46:36.781Z,19.25
2022-10-25T18:51:39.195Z,12.43
2022-10-25T18:56:41.468Z,15.35
2022-10-25T19:01:43.911Z,18.77
2022-10-25T19:06:46.453Z,19.50
2022-10-25T19:11:49.526Z,20.45
2022-10-25T19:16:51.975Z,27.55
2022-10-25T19:21:54.477Z,21.80
2022-10-25T19:26:58.071Z,25.80
2022-10-25T19:32:00.690Z,20.80
2022-10-25T19:37:05.571Z,19.92
2022-10-25T19:42:08.308Z,20.70
2022-10-25T19:47:10.793Z,17.33
2022-10-25T19:52:14.898Z,17.20
2022-10-25T19:57:17.190Z,16.05
2022-10-25T20:02:19.602Z,19.33
2022-10-25T20:07:22.044Z,21.45
2022-10-25T20:12:24.410Z,19.77
2022-10-25T20:17:26.643Z,14.65
2022-10-25T20:22:28.886Z,15.07
2022-10-25T20:27:32.320Z,19.15
2022-10-25T20:32:34.479Z,21.23
2022-10-25T20:37:36.933Z,22.90
2022-10-25T20:42:39.265Z,18.15
2022-10-25T20:47:41.581Z,16.38
2022-10-25T20:52:58.546Z,15.05
2022-10-25T20:58:05.911Z,15.10
2022-10-25T21:03:08.271Z,12.48
2022-10-25T21:08:11.059Z,14.73
2022-10-25T21:13:14.305Z,12.30
2022-10-25T21:18:17.162Z,9.80
2022-10-25T21:23:19.665Z,7.50
2022-10-25T21:28:21.858Z,7.47
2022-10-25T21:33:24.574Z,6.83
2022-10-25T21:38:26.794Z,8.35
2022-10-25T21:43:28.941Z,7.85
2022-10-25T21:48:32.405Z,7.70
2022-10-25T21:53:35.659Z,9.63
2022-10-25T21:58:40.471Z,8.48
2022-10-25T22:03:44.510Z,10.25
2022-10-25T22:08:47.557Z,11.38
2022-10-25T22:13:58.112Z,9.68
2022-10-25T22:19:15.532Z,8.95
2022-10-25T22:24:19.236Z,8.52
2022-10-25T22:29:21.744Z,6.82
2022-10-25T22:34:24.092Z,6.38
2022-10-25T22:39:59.676Z,5.55
2022-10-25T22:46:14.838Z,6.38
2022-10-25T23:09:00.107Z,7.13
